sensor_id;sensor_type;location;lat;lon;timestamp;P1;durP1;ratioP1;P2;durP2;ratioP2
76856;SDS011;66179;44.686;37.628;2023-03-01T00:01:06;11.57;;;5.72;;
76856;SDS011;66179;44.686;37.628;2023-03-01T00:03:34;11.40;;;5.60;;
76856;SDS011;66179;44.686;37.628;2023-03-01T00:08:54;12.98;;;6.07;;
76856;SDS011;66179;44.686;37.628;2023-03-01T00:11:22;10.93;;;5.78;;
76856;SDS011;66179;44.686;37.628;2023-03-01T00:13:51;11.07;;;5.70;;
76856;SDS011;66179;44.686;37.628;2023-03-01T00:16:27;12.03;;;5.97;;
76856;SDS011;66179;44.686;37.628;2023-03-01T00:18:56;10.77;;;5.63;;
76856;SDS011;66179;44.686;37.628;2023-03-01T00:21:24;11.57;;;5.85;;
76856;SDS011;66179;44.686;37.628;2023-03-01T00:23:52;12.07;;;5.75;;
76856;SDS011;66179;44.686;37.628;2023-03-01T00:26:20;13.82;;;5.93;;
76856;SDS011;66179;44.686;37.628;2023-03-01T00:28:48;12.53;;;5.73;;
76856;SDS011;66179;44.686;37.628;2023-03-01T00:31:16;12.93;;;6.03;;
76856;SDS011;66179;44.686;37.628;2023-03-01T00:33:47;11.75;;;5.82;;
76856;SDS011;66179;44.686;37.628;2023-03-01T00:36:16;12.82;;;6.30;;
76856;SDS011;66179;44.686;37.628;2023-03-01T00:38:44;12.82;;;6.50;;
76856;SDS011;66179;44.686;37.628;2023-03-01T00:41:13;12.80;;;6.30;;
76856;SDS011;66179;44.686;37.628;2023-03-01T00:43:42;14.18;;;6.05;;
76856;SDS011;66179;44.686;37.628;2023-03-01T00:46:10;12.15;;;6.03;;
76856;SDS011;66179;44.686;37.628;2023-03-01T00:48:39;13.27;;;6.25;;
76856;SDS011;66179;44.686;37.628;2023-03-01T00:51:10;13.07;;;6.25;;
76856;SDS011;66179;44.686;37.628;2023-03-01T00:53:40;12.40;;;6.20;;
76856;SDS011;66179;44.686;37.628;2023-03-01T00:56:08;12.95;;;5.93;;
76856;SDS011;66179;44.686;37.628;2023-03-01T00:58:36;12.43;;;6.07;;
76856;SDS011;66179;44.686;37.628;2023-03-01T01:01:07;13.65;;;6.30;;
76856;SDS011;66179;44.686;37.628;2023-03-01T01:03:47;12.88;;;5.45;;
76856;SDS011;66179;44.686;37.628;2023-03-01T01:06:16;13.47;;;6.33;;
76856;SDS011;66179;44.686;37.628;2023-03-01T01:08:44;12.25;;;5.78;;
76856;SDS011;66179;44.686;37.628;2023-03-01T01:11:11;13.88;;;6.40;;
76856;SDS011;66179;44.686;37.628;2023-03-01T01:13:39;13.27;;;6.72;;
76856;SDS011;66179;44.686;37.628;2023-03-01T01:16:07;16.10;;;6.85;;
76856;SDS011;66179;44.686;37.628;2023-03-01T01:18:35;13.30;;;6.00;;
76856;SDS011;66179;44.686;37.628;2023-03-01T01:21:06;13.85;;;6.05;;
76856;SDS011;66179;44.686;37.628;2023-03-01T01:23:38;11.70;;;5.53;;
76856;SDS011;66179;44.686;37.628;2023-03-01T01:26:06;12.90;;;6.25;;
76856;SDS011;66179;44.686;37.628;2023-03-01T01:28:34;13.10;;;6.68;;
76856;SDS011;66179;44.686;37.628;2023-03-01T01:31:03;13.80;;;6.20;;
76856;SDS011;66179;44.686;37.628;2023-03-01T01:33:30;13.90;;;6.47;;
76856;SDS011;66179;44.686;37.628;2023-03-01T01:35:58;13.38;;;6.20;;
76856;SDS011;66179;44.686;37.628;2023-03-01T01:38:24;13.00;;;6.47;;
76856;SDS011;66179;44.686;37.628;2023-03-01T01:40:51;14.18;;;6.72;;
76856;SDS011;66179;44.686;37.628;2023-03-01T01:45:55;14.85;;;7.10;;
76856;SDS011;66179;44.686;37.628;2023-03-01T01:48:28;14.30;;;6.90;;
76856;SDS011;66179;44.686;37.628;2023-03-01T01:51:07;15.00;;;7.25;;
76856;SDS011;66179;44.686;37.628;2023-03-01T01:53:40;14.43;;;7.28;;
76856;SDS011;66179;44.686;37.628;2023-03-01T01:56:12;14.17;;;7.30;;
76856;SDS011;66179;44.686;37.628;2023-03-01T01:58:41;14.65;;;7.13;;
76856;SDS011;66179;44.686;37.628;2023-03-01T02:01:09;17.27;;;6.65;;
76856;SDS011;66179;44.686;37.628;2023-03-01T02:03:37;15.02;;;6.40;;
76856;SDS011;66179;44.686;37.628;2023-03-01T02:06:19;14.68;;;7.60;;
76856;SDS011;66179;44.686;37.628;2023-03-01T02:09:00;14.07;;;7.13;;
76856;SDS011;66179;44.686;37.628;2023-03-01T02:11:33;13.73;;;6.80;;
76856;SDS011;66179;44.686;37.628;2023-03-01T02:14:00;11.50;;;5.30;;
76856;SDS011;66179;44.686;37.628;2023-03-01T02:16:26;13.88;;;6.93;;
76856;SDS011;66179;44.686;37.628;2023-03-01T02:18:53;14.55;;;7.57;;
76856;SDS011;66179;44.686;37.628;2023-03-01T02:23:53;14.32;;;6.22;;
76856;SDS011;66179;44.686;37.628;2023-03-01T02:26:33;14.02;;;6.80;;
76856;SDS011;66179;44.686;37.628;2023-03-01T02:29:07;15.80;;;7.18;;
76856;SDS011;66179;44.686;37.628;2023-03-01T02:31:34;15.75;;;7.45;;
76856;SDS011;66179;44.686;37.628;2023-03-01T02:34:15;16.37;;;7.67;;
76856;SDS011;66179;44.686;37.628;2023-03-01T02:37:05;15.32;;;7.78;;
76856;SDS011;66179;44.686;37.628;2023-03-01T02:39:39;17.05;;;7.53;;
76856;SDS011;66179;44.686;37.628;2023-03-01T02:42:11;15.20;;;7.22;;
76856;SDS011;66179;44.686;37.628;2023-03-01T02:44:41;14.98;;;6.97;;
76856;SDS011;66179;44.686;37.628;2023-03-01T02:47:08;15.00;;;7.50;;
76856;SDS011;66179;44.686;37.628;2023-03-01T02:49:35;15.98;;;7.30;;
76856;SDS011;66179;44.686;37.628;2023-03-01T02:55:06;15.05;;;6.82;;
76856;SDS011;66179;44.686;37.628;2023-03-01T02:57:38;14.88;;;7.22;;
76856;SDS011;66179;44.686;37.628;2023-03-01T03:00:08;16.07;;;7.80;;
76856;SDS011;66179;44.686;37.628;2023-03-01T03:02:36;15.82;;;7.55;;
76856;SDS011;66179;44.686;37.628;2023-03-01T03:05:24;14.98;;;7.10;;
76856;SDS011;66179;44.686;37.628;2023-03-01T03:07:56;15.82;;;7.70;;
76856;SDS011;66179;44.686;37.628;2023-03-01T03:10:26;14.73;;;7.35;;
76856;SDS011;66179;44.686;37.628;2023-03-01T03:12:58;16.53;;;7.60;;
76856;SDS011;66179;44.686;37.628;2023-03-01T03:15:26;15.98;;;7.78;;
76856;SDS011;66179;44.686;37.628;2023-03-01T03:17:55;14.70;;;7.72;;
76856;SDS011;66179;44.686;37.628;2023-03-01T03:20:24;14.90;;;7.47;;
76856;SDS011;66179;44.686;37.628;2023-03-01T03:22:54;15.30;;;7.63;;
76856;SDS011;66179;44.686;37.628;2023-03-01T03:25:22;15.00;;;7.23;;
76856;SDS011;66179;44.686;37.628;2023-03-01T03:27:50;16.42;;;7.60;;
76856;SDS011;66179;44.686;37.628;2023-03-01T03:30:23;15.43;;;7.40;;
76856;SDS011;66179;44.686;37.628;2023-03-01T03:32:52;14.88;;;7.25;;
76856;SDS011;66179;44.686;37.628;2023-03-01T03:35:26;13.77;;;5.95;;
76856;SDS011;66179;44.686;37.628;2023-03-01T03:38:03;14.40;;;7.13;;
76856;SDS011;66179;44.686;37.628;2023-03-01T03:40:42;13.98;;;7.00;;
76856;SDS011;66179;44.686;37.628;2023-03-01T03:43:11;16.00;;;6.78;;
76856;SDS011;66179;44.686;37.628;2023-03-01T03:45:40;15.90;;;7.30;;
76856;SDS011;66179;44.686;37.628;2023-03-01T03:48:07;15.27;;;7.20;;
76856;SDS011;66179;44.686;37.628;2023-03-01T03:50:36;12.83;;;6.23;;
76856;SDS011;66179;44.686;37.628;2023-03-01T03:53:04;16.90;;;7.07;;
76856;SDS011;66179;44.686;37.628;2023-03-01T03:55:33;13.98;;;7.18;;
76856;SDS011;66179;44.686;37.628;2023-03-01T03:58:00;15.02;;;7.30;;
76856;SDS011;66179;44.686;37.628;2023-03-01T04:00:33;16.48;;;8.10;;
76856;SDS011;66179;44.686;37.628;2023-03-01T04:03:02;18.13;;;8.30;;
76856;SDS011;66179;44.686;37.628;2023-03-01T04:05:28;15.40;;;7.30;;
76856;SDS011;66179;44.686;37.628;2023-03-01T04:07:56;14.23;;;6.88;;
76856;SDS011;66179;44.686;37.628;2023-03-01T04:10:30;14.60;;;7.10;;
76856;SDS011;66179;44.686;37.628;2023-03-01T04:12:58;14.15;;;6.93;;
76856;SDS011;66179;44.686;37.628;2023-03-01T04:15:25;15.60;;;7.40;;
76856;SDS011;66179;44.686;37.628;2023-03-01T04:17:53;16.13;;;7.22;;
76856;SDS011;66179;44.686;37.628;2023-03-01T04:20:21;15.80;;;6.70;;
76856;SDS011;66179;44.686;37.628;2023-03-01T04:23:00;13.02;;;6.47;;
76856;SDS011;66179;44.686;37.628;2023-03-01T04:25:40;14.38;;;6.97;;
76856;SDS011;66179;44.686;37.628;2023-03-01T04:28:28;16.10;;;6.63;;
76856;SDS011;66179;44.686;37.628;2023-03-01T04:30:57;16.55;;;8.48;;
76856;SDS011;66179;44.686;37.628;2023-03-01T04:33:24;14.65;;;7.60;;
76856;SDS011;66179;44.686;37.628;2023-03-01T04:35:51;16.45;;;8.18;;
76856;SDS011;66179;44.686;37.628;2023-03-01T04:38:18;16.23;;;7.85;;
76856;SDS011;66179;44.686;37.628;2023-03-01T04:40:45;16.13;;;8.00;;
76856;SDS011;66179;44.686;37.628;2023-03-01T04:43:12;15.45;;;7.53;;
76856;SDS011;66179;44.686;37.628;2023-03-01T04:45:40;15.75;;;7.63;;
76856;SDS011;66179;44.686;37.628;2023-03-01T04:48:07;16.67;;;7.85;;
76856;SDS011;66179;44.686;37.628;2023-03-01T04:50:34;16.20;;;7.88;;
76856;SDS011;66179;44.686;37.628;2023-03-01T04:53:01;14.77;;;7.60;;
76856;SDS011;66179;44.686;37.628;2023-03-01T04:55:28;14.45;;;7.72;;
76856;SDS011;66179;44.686;37.628;2023-03-01T04:57:55;16.58;;;7.80;;
76856;SDS011;66179;44.686;37.628;2023-03-01T05:00:22;17.55;;;8.45;;
76856;SDS011;66179;44.686;37.628;2023-03-01T05:02:50;17.33;;;7.93;;
76856;SDS011;66179;44.686;37.628;2023-03-01T05:05:27;16.93;;;7.87;;
76856;SDS011;66179;44.686;37.628;2023-03-01T05:08:03;17.40;;;8.07;;
76856;SDS011;66179;44.686;37.628;2023-03-01T05:10:34;17.58;;;7.85;;
76856;SDS011;66179;44.686;37.628;2023-03-01T05:13:02;18.00;;;8.40;;
76856;SDS011;66179;44.686;37.628;2023-03-01T05:15:30;15.88;;;7.82;;
76856;SDS011;66179;44.686;37.628;2023-03-01T05:17:58;16.93;;;8.00;;
76856;SDS011;66179;44.686;37.628;2023-03-01T05:20:26;15.57;;;7.78;;
76856;SDS011;66179;44.686;37.628;2023-03-01T05:22:55;17.63;;;7.53;;
76856;SDS011;66179;44.686;37.628;2023-03-01T05:25:24;16.40;;;7.75;;
76856;SDS011;66179;44.686;37.628;2023-03-01T05:27:51;16.42;;;7.65;;
76856;SDS011;66179;44.686;37.628;2023-03-01T05:30:17;16.80;;;8.50;;
76856;SDS011;66179;44.686;37.628;2023-03-01T05:32:45;17.80;;;8.27;;
76856;SDS011;66179;44.686;37.628;2023-03-01T05:35:16;16.38;;;7.72;;
76856;SDS011;66179;44.686;37.628;2023-03-01T05:37:44;17.20;;;8.07;;
76856;SDS011;66179;44.686;37.628;2023-03-01T05:40:14;16.10;;;8.43;;
76856;SDS011;66179;44.686;37.628;2023-03-01T05:42:43;17.77;;;7.77;;
76856;SDS011;66179;44.686;37.628;2023-03-01T05:45:11;18.13;;;8.52;;
76856;SDS011;66179;44.686;37.628;2023-03-01T05:47:42;19.40;;;9.00;;
76856;SDS011;66179;44.686;37.628;2023-03-01T05:50:16;20.27;;;9.40;;
76856;SDS011;66179;44.686;37.628;2023-03-01T05:52:52;18.75;;;9.18;;
76856;SDS011;66179;44.686;37.628;2023-03-01T05:55:23;19.03;;;9.57;;
76856;SDS011;66179;44.686;37.628;2023-03-01T05:57:50;18.23;;;8.55;;
76856;SDS011;66179;44.686;37.628;2023-03-01T06:00:17;17.77;;;8.43;;
76856;SDS011;66179;44.686;37.628;2023-03-01T06:02:45;18.25;;;8.85;;
76856;SDS011;66179;44.686;37.628;2023-03-01T06:05:14;18.63;;;8.85;;
76856;SDS011;66179;44.686;37.628;2023-03-01T06:07:41;18.33;;;9.27;;
76856;SDS011;66179;44.686;37.628;2023-03-01T06:10:08;20.80;;;9.93;;
76856;SDS011;66179;44.686;37.628;2023-03-01T06:12:37;20.40;;;9.93;;
76856;SDS011;66179;44.686;37.628;2023-03-01T06:15:04;21.85;;;9.68;;
76856;SDS011;66179;44.686;37.628;2023-03-01T06:17:34;18.15;;;9.38;;
76856;SDS011;66179;44.686;37.628;2023-03-01T06:20:05;19.53;;;10.00;;
76856;SDS011;66179;44.686;37.628;2023-03-01T06:22:34;18.98;;;9.57;;
76856;SDS011;66179;44.686;37.628;2023-03-01T06:25:01;22.50;;;10.65;;
76856;SDS011;66179;44.686;37.628;2023-03-01T06:27:28;20.58;;;10.45;;
76856;SDS011;66179;44.686;37.628;2023-03-01T06:29:54;18.55;;;9.93;;
76856;SDS011;66179;44.686;37.628;2023-03-01T06:32:21;19.83;;;10.50;;
76856;SDS011;66179;44.686;37.628;2023-03-01T06:34:48;19.90;;;10.38;;
76856;SDS011;66179;44.686;37.628;2023-03-01T06:37:15;20.73;;;10.20;;
76856;SDS011;66179;44.686;37.628;2023-03-01T06:39:42;20.10;;;10.02;;
76856;SDS011;66179;44.686;37.628;2023-03-01T06:42:08;20.83;;;10.02;;
76856;SDS011;66179;44.686;37.628;2023-03-01T06:44:38;18.40;;;10.20;;
76856;SDS011;66179;44.686;37.628;2023-03-01T06:47:04;21.60;;;10.75;;
76856;SDS011;66179;44.686;37.628;2023-03-01T06:49:31;19.20;;;10.32;;
76856;SDS011;66179;44.686;37.628;2023-03-01T06:51:57;19.17;;;9.82;;
76856;SDS011;66179;44.686;37.628;2023-03-01T06:54:24;19.45;;;10.48;;
76856;SDS011;66179;44.686;37.628;2023-03-01T06:56:51;19.43;;;10.10;;
76856;SDS011;66179;44.686;37.628;2023-03-01T06:59:18;19.67;;;9.40;;
76856;SDS011;66179;44.686;37.628;2023-03-01T07:01:45;20.10;;;10.35;;
76856;SDS011;66179;44.686;37.628;2023-03-01T07:04:12;21.67;;;9.88;;
76856;SDS011;66179;44.686;37.628;2023-03-01T07:06:41;21.23;;;10.80;;
76856;SDS011;66179;44.686;37.628;2023-03-01T07:09:07;20.33;;;10.50;;
76856;SDS011;66179;44.686;37.628;2023-03-01T07:11:34;22.85;;;10.48;;
76856;SDS011;66179;44.686;37.628;2023-03-01T07:14:01;20.25;;;9.93;;
76856;SDS011;66179;44.686;37.628;2023-03-01T07:16:27;20.40;;;10.25;;
76856;SDS011;66179;44.686;37.628;2023-03-01T07:18:54;16.45;;;8.10;;
76856;SDS011;66179;44.686;37.628;2023-03-01T07:21:20;19.50;;;9.53;;
76856;SDS011;66179;44.686;37.628;2023-03-01T07:23:47;20.05;;;9.40;;
76856;SDS011;66179;44.686;37.628;2023-03-01T07:26:17;17.83;;;8.70;;
76856;SDS011;66179;44.686;37.628;2023-03-01T07:28:43;17.65;;;8.98;;
76856;SDS011;66179;44.686;37.628;2023-03-01T07:31:10;17.65;;;8.40;;
76856;SDS011;66179;44.686;37.628;2023-03-01T07:33:37;17.20;;;8.43;;
76856;SDS011;66179;44.686;37.628;2023-03-01T07:36:03;19.30;;;9.18;;
76856;SDS011;66179;44.686;37.628;2023-03-01T07:38:31;15.95;;;8.55;;
76856;SDS011;66179;44.686;37.628;2023-03-01T07:40:59;15.82;;;8.20;;
76856;SDS011;66179;44.686;37.628;2023-03-01T07:43:27;25.33;;;8.85;;
76856;SDS011;66179;44.686;37.628;2023-03-01T07:45:54;17.73;;;9.00;;
76856;SDS011;66179;44.686;37.628;2023-03-01T07:48:24;15.70;;;8.18;;
76856;SDS011;66179;44.686;37.628;2023-03-01T07:50:51;16.02;;;7.47;;
76856;SDS011;66179;44.686;37.628;2023-03-01T07:53:17;17.40;;;8.55;;
76856;SDS011;66179;44.686;37.628;2023-03-01T07:55:44;16.45;;;8.32;;
76856;SDS011;66179;44.686;37.628;2023-03-01T07:58:10;17.27;;;8.80;;
76856;SDS011;66179;44.686;37.628;2023-03-01T08:00:37;17.33;;;8.35;;
76856;SDS011;66179;44.686;37.628;2023-03-01T08:03:03;17.00;;;8.73;;
76856;SDS011;66179;44.686;37.628;2023-03-01T08:05:30;15.98;;;8.48;;
76856;SDS011;66179;44.686;37.628;2023-03-01T08:07:56;15.30;;;8.45;;
76856;SDS011;66179;44.686;37.628;2023-03-01T08:10:23;16.27;;;8.73;;
76856;SDS011;66179;44.686;37.628;2023-03-01T08:12:53;17.10;;;8.20;;
76856;SDS011;66179;44.686;37.628;2023-03-01T08:15:20;16.80;;;8.65;;
76856;SDS011;66179;44.686;37.628;2023-03-01T08:17:48;14.95;;;7.60;;
76856;SDS011;66179;44.686;37.628;2023-03-01T08:20:16;13.88;;;7.88;;
76856;SDS011;66179;44.686;37.628;2023-03-01T08:22:42;16.63;;;7.50;;
76856;SDS011;66179;44.686;37.628;2023-03-01T08:25:09;15.73;;;7.60;;
76856;SDS011;66179;44.686;37.628;2023-03-01T08:27:35;13.30;;;7.40;;
76856;SDS011;66179;44.686;37.628;2023-03-01T08:30:02;15.40;;;7.38;;
76856;SDS011;66179;44.686;37.628;2023-03-01T08:32:38;17.75;;;7.75;;
76856;SDS011;66179;44.686;37.628;2023-03-01T08:35:06;14.53;;;7.37;;
76856;SDS011;66179;44.686;37.628;2023-03-01T08:37:33;15.00;;;7.60;;
76856;SDS011;66179;44.686;37.628;2023-03-01T08:40:00;13.82;;;6.70;;
76856;SDS011;66179;44.686;37.628;2023-03-01T08:42:26;12.77;;;6.68;;
76856;SDS011;66179;44.686;37.628;2023-03-01T08:44:53;15.98;;;7.88;;
76856;SDS011;66179;44.686;37.628;2023-03-01T08:47:20;15.77;;;7.30;;
76856;SDS011;66179;44.686;37.628;2023-03-01T08:49:48;15.52;;;7.45;;
76856;SDS011;66179;44.686;37.628;2023-03-01T08:52:16;14.30;;;7.15;;
76856;SDS011;66179;44.686;37.628;2023-03-01T08:54:43;14.98;;;7.57;;
76856;SDS011;66179;44.686;37.628;2023-03-01T08:57:10;18.10;;;7.32;;
76856;SDS011;66179;44.686;37.628;2023-03-01T08:59:38;17.13;;;7.17;;
76856;SDS011;66179;44.686;37.628;2023-03-01T09:02:08;14.48;;;7.32;;
76856;SDS011;66179;44.686;37.628;2023-03-01T09:04:40;16.92;;;8.20;;
76856;SDS011;66179;44.686;37.628;2023-03-01T09:07:07;13.10;;;7.30;;
76856;SDS011;66179;44.686;37.628;2023-03-01T09:09:35;15.07;;;7.88;;
76856;SDS011;66179;44.686;37.628;2023-03-01T09:12:02;14.83;;;6.37;;
76856;SDS011;66179;44.686;37.628;2023-03-01T09:14:41;14.35;;;7.38;;
76856;SDS011;66179;44.686;37.628;2023-03-01T09:17:08;15.82;;;7.10;;
76856;SDS011;66179;44.686;37.628;2023-03-01T09:19:35;14.43;;;7.18;;
76856;SDS011;66179;44.686;37.628;2023-03-01T09:22:02;13.70;;;7.28;;
76856;SDS011;66179;44.686;37.628;2023-03-01T09:24:30;14.83;;;7.47;;
76856;SDS011;66179;44.686;37.628;2023-03-01T09:26:57;15.25;;;7.13;;
76856;SDS011;66179;44.686;37.628;2023-03-01T09:29:24;17.98;;;8.13;;
76856;SDS011;66179;44.686;37.628;2023-03-01T09:31:52;13.88;;;6.82;;
76856;SDS011;66179;44.686;37.628;2023-03-01T09:34:21;13.60;;;6.95;;
76856;SDS011;66179;44.686;37.628;2023-03-01T09:36:49;12.40;;;6.33;;
76856;SDS011;66179;44.686;37.628;2023-03-01T09:39:17;11.38;;;6.63;;
76856;SDS011;66179;44.686;37.628;2023-03-01T09:42:01;11.15;;;5.95;;
76856;SDS011;66179;44.686;37.628;2023-03-01T09:47:21;13.23;;;5.90;;
76856;SDS011;66179;44.686;37.628;2023-03-01T09:49:59;12.83;;;6.30;;
76856;SDS011;66179;44.686;37.628;2023-03-01T09:52:33;12.80;;;6.15;;
76856;SDS011;66179;44.686;37.628;2023-03-01T09:55:00;10.75;;;5.30;;
76856;SDS011;66179;44.686;37.628;2023-03-01T10:00:17;10.93;;;5.03;;
76856;SDS011;66179;44.686;37.628;2023-03-01T10:02:51;11.47;;;5.40;;
76856;SDS011;66179;44.686;37.628;2023-03-01T10:08:28;11.70;;;5.93;;
76856;SDS011;66179;44.686;37.628;2023-03-01T10:11:02;11.23;;;5.43;;
76856;SDS011;66179;44.686;37.628;2023-03-01T10:16:22;10.83;;;5.30;;
76856;SDS011;66179;44.686;37.628;2023-03-01T10:19:01;10.48;;;5.45;;
76856;SDS011;66179;44.686;37.628;2023-03-01T10:21:29;10.60;;;5.47;;
76856;SDS011;66179;44.686;37.628;2023-03-01T10:24:07;12.57;;;5.35;;
76856;SDS011;66179;44.686;37.628;2023-03-01T10:29:23;10.43;;;5.43;;
76856;SDS011;66179;44.686;37.628;2023-03-01T10:31:55;11.65;;;5.75;;
76856;SDS011;66179;44.686;37.628;2023-03-01T10:34:27;11.43;;;5.53;;
76856;SDS011;66179;44.686;37.628;2023-03-01T10:37:01;11.23;;;5.45;;
76856;SDS011;66179;44.686;37.628;2023-03-01T10:39:35;12.65;;;6.25;;
76856;SDS011;66179;44.686;37.628;2023-03-01T10:42:05;11.40;;;5.80;;
76856;SDS011;66179;44.686;37.628;2023-03-01T10:44:46;14.45;;;5.68;;
76856;SDS011;66179;44.686;37.628;2023-03-01T10:47:18;11.77;;;5.40;;
76856;SDS011;66179;44.686;37.628;2023-03-01T10:49:55;11.02;;;5.43;;
76856;SDS011;66179;44.686;37.628;2023-03-01T10:52:35;11.15;;;5.60;;
76856;SDS011;66179;44.686;37.628;2023-03-01T11:00:55;15.02;;;6.55;;
76856;SDS011;66179;44.686;37.628;2023-03-01T11:03:25;14.27;;;6.57;;
76856;SDS011;66179;44.686;37.628;2023-03-01T11:06:01;11.90;;;4.72;;
76856;SDS011;66179;44.686;37.628;2023-03-01T11:14:00;9.93;;;4.07;;
76856;SDS011;66179;44.686;37.628;2023-03-01T11:16:35;8.80;;;3.70;;
76856;SDS011;66179;44.686;37.628;2023-03-01T11:19:13;9.23;;;3.42;;
76856;SDS011;66179;44.686;37.628;2023-03-01T11:24:37;9.02;;;4.35;;
76856;SDS011;66179;44.686;37.628;2023-03-01T11:29:51;8.23;;;3.53;;
76856;SDS011;66179;44.686;37.628;2023-03-01T11:32:19;9.10;;;3.50;;
76856;SDS011;66179;44.686;37.628;2023-03-01T11:52:08;11.73;;;4.57;;
76856;SDS011;66179;44.686;37.628;2023-03-01T12:00:38;11.65;;;4.47;;
76856;SDS011;66179;44.686;37.628;2023-03-01T12:03:30;11.47;;;4.37;;
76856;SDS011;66179;44.686;37.628;2023-03-01T12:06:19;10.98;;;4.30;;
76856;SDS011;66179;44.686;37.628;2023-03-01T12:09:11;13.65;;;4.78;;
76856;SDS011;66179;44.686;37.628;2023-03-01T12:15:05;11.65;;;4.30;;
76856;SDS011;66179;44.686;37.628;2023-03-01T12:20:56;9.20;;;4.00;;
76856;SDS011;66179;44.686;37.628;2023-03-01T12:26:42;9.93;;;4.47;;
76856;SDS011;66179;44.686;37.628;2023-03-01T12:29:38;12.48;;;5.40;;
76856;SDS011;66179;44.686;37.628;2023-03-01T12:46:21;15.43;;;6.30;;
76856;SDS011;66179;44.686;37.628;2023-03-01T12:51:37;13.77;;;6.22;;
76856;SDS011;66179;44.686;37.628;2023-03-01T12:54:07;14.95;;;6.60;;
76856;SDS011;66179;44.686;37.628;2023-03-01T12:56:41;14.60;;;7.25;;
76856;SDS011;66179;44.686;37.628;2023-03-01T12:59:30;15.20;;;7.40;;
76856;SDS011;66179;44.686;37.628;2023-03-01T13:05:20;14.50;;;6.70;;
76856;SDS011;66179;44.686;37.628;2023-03-01T13:10:58;11.98;;;5.05;;
76856;SDS011;66179;44.686;37.628;2023-03-01T13:13:28;10.83;;;4.60;;
76856;SDS011;66179;44.686;37.628;2023-03-01T13:15:55;15.55;;;7.93;;
76856;SDS011;66179;44.686;37.628;2023-03-01T13:20:58;15.23;;;8.18;;
76856;SDS011;66179;44.686;37.628;2023-03-01T13:23:28;22.77;;;13.35;;
76856;SDS011;66179;44.686;37.628;2023-03-01T13:28:40;12.27;;;6.90;;
76856;SDS011;66179;44.686;37.628;2023-03-01T13:33:45;14.10;;;8.98;;
76856;SDS011;66179;44.686;37.628;2023-03-01T13:38:55;14.90;;;9.50;;
76856;SDS011;66179;44.686;37.628;2023-03-01T13:44:30;10.30;;;5.10;;
76856;SDS011;66179;44.686;37.628;2023-03-01T13:49:48;9.80;;;4.70;;
76856;SDS011;66179;44.686;37.628;2023-03-01T13:52:45;11.23;;;5.20;;
76856;SDS011;66179;44.686;37.628;2023-03-01T13:55:42;11.38;;;5.70;;
76856;SDS011;66179;44.686;37.628;2023-03-01T14:00:45;8.82;;;4.47;;
76856;SDS011;66179;44.686;37.628;2023-03-01T14:03:16;9.48;;;4.93;;
76856;SDS011;66179;44.686;37.628;2023-03-01T14:08:44;7.90;;;3.90;;
76856;SDS011;66179;44.686;37.628;2023-03-01T14:19:21;17.97;;;10.00;;
76856;SDS011;66179;44.686;37.628;2023-03-01T14:24:47;8.73;;;3.65;;
76856;SDS011;66179;44.686;37.628;2023-03-01T14:27:20;11.43;;;6.63;;
76856;SDS011;66179;44.686;37.628;2023-03-01T14:29:57;13.77;;;6.40;;
76856;SDS011;66179;44.686;37.628;2023-03-01T14:32:30;13.13;;;4.53;;
76856;SDS011;66179;44.686;37.628;2023-03-01T14:34:58;11.30;;;7.30;;
76856;SDS011;66179;44.686;37.628;2023-03-01T14:39:55;8.90;;;3.20;;
76856;SDS011;66179;44.686;37.628;2023-03-01T14:42:23;7.25;;;3.00;;
76856;SDS011;66179;44.686;37.628;2023-03-01T14:44:54;7.70;;;2.93;;
76856;SDS011;66179;44.686;37.628;2023-03-01T14:47:28;11.52;;;2.90;;
76856;SDS011;66179;44.686;37.628;2023-03-01T14:50:00;6.65;;;2.75;;
76856;SDS011;66179;44.686;37.628;2023-03-01T14:52:37;6.45;;;2.58;;
76856;SDS011;66179;44.686;37.628;2023-03-01T14:55:07;9.13;;;3.00;;
76856;SDS011;66179;44.686;37.628;2023-03-01T14:57:45;7.90;;;2.80;;
76856;SDS011;66179;44.686;37.628;2023-03-01T15:00:24;8.45;;;2.78;;
76856;SDS011;66179;44.686;37.628;2023-03-01T15:02:53;7.78;;;3.30;;
76856;SDS011;66179;44.686;37.628;2023-03-01T15:05:29;8.77;;;3.60;;
76856;SDS011;66179;44.686;37.628;2023-03-01T15:07:58;11.40;;;4.30;;
76856;SDS011;66179;44.686;37.628;2023-03-01T15:10:27;7.97;;;3.10;;
76856;SDS011;66179;44.686;37.628;2023-03-01T15:12:56;11.10;;;4.30;;
76856;SDS011;66179;44.686;37.628;2023-03-01T15:15:36;11.13;;;3.80;;
76856;SDS011;66179;44.686;37.628;2023-03-01T15:20:43;11.63;;;4.57;;
76856;SDS011;66179;44.686;37.628;2023-03-01T15:23:17;15.73;;;10.83;;
76856;SDS011;66179;44.686;37.628;2023-03-01T15:25:44;9.88;;;5.82;;
76856;SDS011;66179;44.686;37.628;2023-03-01T15:28:12;8.57;;;4.05;;
76856;SDS011;66179;44.686;37.628;2023-03-01T15:30:46;13.73;;;8.98;;
76856;SDS011;66179;44.686;37.628;2023-03-01T15:35:50;9.70;;;5.03;;
76856;SDS011;66179;44.686;37.628;2023-03-01T15:38:53;11.48;;;4.80;;
76856;SDS011;66179;44.686;37.628;2023-03-01T15:41:30;8.93;;;4.47;;
76856;SDS011;66179;44.686;37.628;2023-03-01T15:43:59;9.30;;;4.53;;
76856;SDS011;66179;44.686;37.628;2023-03-01T15:46:31;9.65;;;4.80;;
76856;SDS011;66179;44.686;37.628;2023-03-01T15:49:03;10.50;;;5.00;;
76856;SDS011;66179;44.686;37.628;2023-03-01T15:51:46;11.07;;;5.07;;
76856;SDS011;66179;44.686;37.628;2023-03-01T15:54:16;17.88;;;6.05;;
76856;SDS011;66179;44.686;37.628;2023-03-01T15:56:45;15.02;;;5.72;;
76856;SDS011;66179;44.686;37.628;2023-03-01T15:59:13;11.55;;;5.18;;
76856;SDS011;66179;44.686;37.628;2023-03-01T16:01:42;13.50;;;5.53;;
76856;SDS011;66179;44.686;37.628;2023-03-01T16:04:10;11.40;;;5.70;;
76856;SDS011;66179;44.686;37.628;2023-03-01T16:06:46;11.38;;;5.72;;
76856;SDS011;66179;44.686;37.628;2023-03-01T16:09:20;12.52;;;6.05;;
76856;SDS011;66179;44.686;37.628;2023-03-01T16:11:49;14.80;;;6.50;;
76856;SDS011;66179;44.686;37.628;2023-03-01T16:14:16;14.47;;;6.30;;
76856;SDS011;66179;44.686;37.628;2023-03-01T16:16:43;32.83;;;12.05;;
76856;SDS011;66179;44.686;37.628;2023-03-01T16:19:10;59.88;;;17.58;;
76856;SDS011;66179;44.686;37.628;2023-03-01T16:21:37;86.28;;;25.08;;
76856;SDS011;66179;44.686;37.628;2023-03-01T16:24:04;55.38;;;16.95;;
76856;SDS011;66179;44.686;37.628;2023-03-01T16:26:32;26.57;;;10.20;;
76856;SDS011;66179;44.686;37.628;2023-03-01T16:28:58;23.30;;;8.85;;
76856;SDS011;66179;44.686;37.628;2023-03-01T16:31:26;19.30;;;9.23;;
76856;SDS011;66179;44.686;37.628;2023-03-01T16:33:53;56.42;;;24.75;;
76856;SDS011;66179;44.686;37.628;2023-03-01T16:36:21;14.15;;;6.72;;
76856;SDS011;66179;44.686;37.628;2023-03-01T16:38:50;13.20;;;5.30;;
76856;SDS011;66179;44.686;37.628;2023-03-01T16:41:18;25.35;;;12.38;;
76856;SDS011;66179;44.686;37.628;2023-03-01T16:43:46;55.35;;;27.23;;
76856;SDS011;66179;44.686;37.628;2023-03-01T16:46:15;20.27;;;9.27;;
76856;SDS011;66179;44.686;37.628;2023-03-01T16:48:44;13.18;;;6.55;;
76856;SDS011;66179;44.686;37.628;2023-03-01T16:51:13;19.53;;;9.20;;
76856;SDS011;66179;44.686;37.628;2023-03-01T16:53:40;14.90;;;8.45;;
76856;SDS011;66179;44.686;37.628;2023-03-01T16:56:08;20.63;;;10.75;;
76856;SDS011;66179;44.686;37.628;2023-03-01T16:58:39;20.15;;;10.02;;